createdAt,value
2016-10-28T17:23:29.800Z,98.2
2016-10-28T17:23:50.370Z,98.7
2016-10-28T17:24:10.947Z,98.6
2016-10-28T17:24:31.553Z,98.2
2016-10-28T17:24:52.530Z,98.3
2016-10-28T17:25:14.832Z,98.1
2016-10-28T17:25:36.747Z,98.1
2016-10-28T17:25:57.331Z,98.4
2016-10-28T17:26:17.935Z,98.4
2016-10-28T17:26:38.494Z,98.5
2016-10-28T17:26:59.121Z,98.2
2016-10-28T17:27:19.765Z,98.2
2016-10-28T17:27:40.356Z,98.1
2016-10-28T17:28:01.010Z,98.2
2016-10-28T17:28:21.572Z,98.3
2016-10-28T17:28:42.768Z,98.2
2016-10-28T17:29:03.655Z,98.2
2016-10-28T17:29:24.218Z,98.5
2016-10-28T17:29:44.794Z,98.4
2016-10-28T17:30:05.369Z,98.5
2016-10-28T17:30:26.699Z,98.2
2016-10-28T17:30:47.843Z,98.6
2016-10-28T17:31:08.438Z,98.4
2016-10-28T17:31:29.451Z,98.8
2016-10-28T17:31:50.488Z,98.4
2016-10-28T17:32:11.440Z,98.9
2016-10-28T17:32:33.235Z,98.2
2016-10-28T17:32:54.668Z,98.8
2016-10-28T17:33:16.338Z,98.2
2016-10-28T17:33:37.277Z,98.3
2016-10-28T17:33:58.360Z,98.5
2016-10-28T17:34:19.420Z,98.9
2016-10-28T17:34:40.468Z,98.8
2016-10-28T17:35:01.614Z,98.9
2016-10-28T17:35:23.730Z,98.9
2016-10-28T17:35:45.334Z,98.9
2016-10-28T17:36:07.342Z,98.8
2016-10-28T17:36:28.659Z,98.7
2016-10-28T17:36:49.577Z,99
2016-10-28T17:37:10.641Z,98.6
2016-10-28T17:37:31.568Z,98.9
2016-10-28T17:37:52.577Z,98.8
2016-10-28T17:38:13.574Z,98.8
2016-10-28T17:38:35.267Z,99.1
2016-10-28T17:38:56.745Z,99
2016-10-28T17:39:17.926Z,99.1
2016-10-28T17:39:39.028Z,98.8
2016-10-28T17:40:00.155Z,98.6
2016-10-28T17:40:21.389Z,98.8
2016-10-28T17:40:42.454Z,99
2016-10-28T17:41:03.524Z,98.8
2016-10-28T17:41:24.514Z,99
2016-10-28T17:41:45.680Z,99
2016-10-28T17:42:07.377Z,98.8
2016-10-28T17:42:28.287Z,99
2016-10-28T17:42:49.442Z,98.6
2016-10-28T17:43:10.492Z,98.6
2016-10-28T17:43:31.594Z,98.8
2016-10-28T17:43:52.753Z,99
2016-10-28T17:44:13.773Z,98.6
2016-10-28T17:44:34.996Z,98.6
2016-10-28T17:44:55.968Z,99
2016-10-28T17:45:17.279Z,98.8
2016-10-28T17:45:38.396Z,98.6
2016-10-28T17:45:59.454Z,98.8
2016-10-28T17:46:21.331Z,98.7
2016-10-28T17:46:45.392Z,99
2016-10-28T17:47:06.550Z,98.8
2016-10-28T17:47:27.652Z,99.1
2016-10-28T17:47:48.709Z,99.1
2016-10-28T17:48:09.677Z,99
2016-10-28T17:48:30.767Z,99
2016-10-28T17:48:51.770Z,98.9
2016-10-28T17:49:13.072Z,98.9
2016-10-28T17:49:34.214Z,98.8
2016-10-28T17:49:55.365Z,98.4
2016-10-28T17:50:16.281Z,98.8
2016-10-28T17:50:37.409Z,98.8
2016-10-28T17:50:58.452Z,98.9
2016-10-28T17:51:20.045Z,98.6
2016-10-28T17:51:41.100Z,99
2016-10-28T17:52:02.294Z,98.6
2016-10-28T17:52:23.467Z,98.8
2016-10-28T17:52:44.579Z,98.8
2016-10-28T17:53:05.568Z,98.7
2016-10-28T17:53:26.589Z,99.1
2016-10-28T17:53:47.830Z,98.9
2016-10-28T17:54:08.824Z,99.1
2016-10-28T17:54:29.893Z,99.2
2016-10-28T17:54:50.865Z,99.3
2016-10-28T17:55:12.099Z,99.3
2016-10-28T17:55:33.029Z,99
2016-10-28T17:55:54.089Z,98.9
2016-10-28T17:56:15.295Z,98.8
2016-10-28T17:56:36.293Z,98.7
2016-10-28T17:56:57.383Z,98.6
2016-10-28T17:57:18.511Z,99
2016-10-28T17:57:39.585Z,98.6
2016-10-28T17:58:00.709Z,98.7
2016-10-28T17:58:21.716Z,98.6
2016-10-28T17:58:42.874Z,99.1
2016-10-28T17:59:03.893Z,99.1
2016-10-28T17:59:24.884Z,98.6
2016-10-28T17:59:46.057Z,98.9
2016-10-28T18:00:07.020Z,98.7
2016-10-28T18:00:28.220Z,98.6
2016-10-28T18:00:49.263Z,98.9
2016-10-28T18:01:10.356Z,99.1
2016-10-28T18:01:31.409Z,99.1
2016-10-28T18:01:52.604Z,99.1
2016-10-28T18:02:13.701Z,99
2016-10-28T18:02:34.714Z,98.8
2016-10-28T18:02:55.635Z,98.7
2016-10-28T18:03:16.374Z,98.6
2016-10-28T18:03:37.302Z,98.8
2016-10-28T18:03:58.464Z,99.1
2016-10-28T18:04:19.672Z,99.1
2016-10-28T18:04:40.757Z,98.7
2016-10-28T18:05:01.935Z,98.9
2016-10-28T18:05:22.916Z,98.6
2016-10-28T18:05:43.958Z,99
2016-10-28T18:06:05.127Z,99.1
2016-10-28T18:06:26.380Z,98.8
2016-10-28T18:06:47.172Z,99.4
2016-10-28T18:07:08.516Z,99.4
2016-10-28T18:07:29.864Z,99.4
2016-10-28T18:07:51.173Z,98.9
2016-10-28T18:08:12.274Z,99
2016-10-28T18:08:33.356Z,98.8
2016-10-28T18:08:54.255Z,99.1
2016-10-28T18:09:15.389Z,99
2016-10-28T18:09:36.369Z,98.5
2016-10-28T18:09:57.435Z,99.2
2016-10-28T18:10:18.550Z,99.1
2016-10-28T18:10:39.605Z,98.9
2016-10-28T18:11:00.515Z,99.2
2016-10-28T18:11:21.552Z,99.4
2016-10-28T18:11:42.752Z,99.5
2016-10-28T18:12:03.709Z,98.7
2016-10-28T18:12:24.926Z,99
2016-10-28T18:12:45.884Z,99.4
2016-10-28T18:13:06.989Z,99.4
2016-10-28T18:13:28.028Z,99.6
2016-10-28T18:13:49.046Z,98.7
2016-10-28T18:14:10.065Z,99
2016-10-28T18:14:31.043Z,99
2016-10-28T18:14:52.262Z,99.4
2016-10-28T18:15:13.337Z,99.4
2016-10-28T18:15:34.423Z,99.6
2016-10-28T18:15:55.505Z,99.7
2016-10-28T18:16:16.607Z,99.7
2016-10-28T18:16:37.552Z,99.7
2016-10-28T18:16:58.628Z,99.4
2016-10-28T18:17:19.680Z,99.2
2016-10-28T18:17:40.700Z,99.5
2016-10-28T18:18:01.696Z,99.2
2016-10-28T18:18:22.619Z,99.2
2016-10-28T18:18:43.764Z,99.1
2016-10-28T18:19:04.687Z,99
2016-10-28T18:19:25.683Z,99.7
2016-10-28T18:19:46.792Z,99.2
2016-10-28T18:20:07.955Z,99.7
2016-10-28T18:20:29.094Z,99
2016-10-28T18:20:50.230Z,99.2
2016-10-28T18:21:11.317Z,99.1
2016-10-28T18:21:32.242Z,99.1
2016-10-28T18:21:53.348Z,99.1
2016-10-28T18:22:14.353Z,99.3
2016-10-28T18:22:35.439Z,99.4
2016-10-28T18:22:56.419Z,99.3
2016-10-28T18:23:17.240Z,99.3
2016-10-28T18:23:38.377Z,99
2016-10-28T18:23:59.477Z,99
2016-10-28T18:24:20.528Z,99.2
2016-10-28T18:24:41.554Z,99.1
2016-10-28T18:25:02.674Z,99.1
2016-10-28T18:25:23.722Z,99
2016-10-28T18:25:44.912Z,99
2016-10-28T18:26:05.967Z,99.4
2016-10-28T18:26:26.911Z,99.4
2016-10-28T18:26:48.187Z,99.3
2016-10-28T18:27:09.149Z,99.6
2016-10-28T18:27:30.323Z,99.2
2016-10-28T18:27:51.321Z,99
2016-10-28T18:28:12.488Z,99.4
2016-10-28T18:28:33.494Z,99.1
2016-10-28T18:28:54.583Z,99.3
2016-10-28T18:29:15.546Z,99.4
2016-10-28T18:29:36.700Z,99
2016-10-28T18:29:57.747Z,99.4
2016-10-28T18:30:18.692Z,99.3
2016-10-28T18:30:39.759Z,99.5
2016-10-28T18:31:00.963Z,98.8
2016-10-28T18:31:22.108Z,99.4
2016-10-28T18:31:43.033Z,98.8
2016-10-28T18:32:03.906Z,99.5
2016-10-28T18:32:24.978Z,99.3
2016-10-28T18:32:46.081Z,99.3
2016-10-28T18:33:07.250Z,98.9
2016-10-28T18:33:28.537Z,99.5
2016-10-28T18:33:49.516Z,99.2
2016-10-28T18:34:10.630Z,99.1
2016-10-28T18:34:31.940Z,99.2
2016-10-28T18:34:52.885Z,99.3
2016-10-28T18:35:13.821Z,99.2
2016-10-28T18:35:35.069Z,98.4
2016-10-28T18:35:56.350Z,98.7
2016-10-28T18:36:17.397Z,98.9
2016-10-28T18:36:38.418Z,99
2016-10-28T18:36:59.437Z,99
2016-10-28T18:37:20.685Z,99
2016-10-28T18:37:41.655Z,99.2
2016-10-28T18:38:02.875Z,98.8
2016-10-28T18:38:23.964Z,98.7
2016-10-28T18:38:45.024Z,98.8
2016-10-28T18:39:06.296Z,99.2
2016-10-28T18:39:27.322Z,98.8
2016-10-28T18:39:48.431Z,99
2016-10-28T18:40:09.542Z,99.2
2016-10-28T18:40:30.709Z,98.9
2016-10-28T18:40:51.951Z,98.7
2016-10-28T18:41:12.901Z,99
2016-10-28T18:41:33.977Z,98.9
2016-10-28T18:41:54.982Z,99
2016-10-28T18:42:16.221Z,99.1
2016-10-28T18:42:37.108Z,99.4
2016-10-28T18:42:58.284Z,99
2016-10-28T18:43:19.301Z,99.1
2016-10-28T18:43:40.325Z,99.1
2016-10-28T18:44:01.282Z,99.4
2016-10-28T18:44:22.300Z,99
2016-10-28T18:44:43.430Z,98.7
2016-10-28T18:45:04.439Z,99.6
2016-10-28T18:45:25.508Z,99.4
2016-10-28T18:45:46.360Z,99.2
2016-10-28T18:46:07.431Z,98.9
2016-10-28T18:46:28.585Z,99.1
2016-10-28T18:46:49.672Z,98.6
2016-10-28T18:47:10.876Z,99
2016-10-28T18:47:32.015Z,99.1
2016-10-28T18:47:53.095Z,98.7
2016-10-28T18:48:14.462Z,99.5
2016-10-28T18:48:35.611Z,98.8
2016-10-28T18:48:56.701Z,98.7
2016-10-28T18:49:17.895Z,99
2016-10-28T18:49:38.962Z,99
2016-10-28T18:49:59.945Z,99
2016-10-28T18:50:21.021Z,99.4
2016-10-28T18:50:42.236Z,99.4
2016-10-28T18:51:03.436Z,99.7
2016-10-28T18:51:24.687Z,99.2
2016-10-28T18:51:45.864Z,99.3
2016-10-28T18:52:07.262Z,99.3
2016-10-28T18:52:28.622Z,99
2016-10-28T18:52:49.952Z,99.2
2016-10-28T18:53:11.238Z,99.7
2016-10-28T18:53:32.421Z,99.5
2016-10-28T18:53:53.591Z,99.7
2016-10-28T18:54:14.839Z,99.2
2016-10-28T18:54:35.992Z,99.5
2016-10-28T18:54:56.984Z,99.2
2016-10-28T18:55:18.137Z,99.6
2016-10-28T18:55:39.263Z,99.4
2016-10-28T18:56:00.404Z,99
2016-10-28T18:56:21.531Z,99.4
2016-10-28T18:56:42.926Z,99
2016-10-28T18:57:04.060Z,99.1
2016-10-28T18:57:25.263Z,99.7
2016-10-28T18:57:46.418Z,99.8
2016-10-28T18:58:07.473Z,99.5
2016-10-28T18:58:28.436Z,99.2
2016-10-28T18:58:49.462Z,99.2
2016-10-28T18:59:10.555Z,99.2
2016-10-28T18:59:31.671Z,98.9
2016-10-28T18:59:53.112Z,99.6
2016-10-28T19:00:14.242Z,99
2016-10-28T19:00:35.513Z,99
2016-10-28T19:00:56.637Z,99.5
2016-10-28T19:01:17.839Z,99.6
2016-10-28T19:01:38.955Z,99.1
2016-10-28T19:02:00.299Z,99.5
2016-10-28T19:02:21.470Z,98.8
2016-10-28T19:02:42.878Z,99.6
2016-10-28T19:03:04.282Z,98.7
2016-10-28T19:03:25.523Z,99.7
2016-10-28T19:03:46.503Z,98.6
2016-10-28T19:04:07.439Z,98.8
2016-10-28T19:04:28.412Z,98.8
2016-10-28T19:04:49.638Z,99.3
2016-10-28T19:05:10.480Z,99.3
2016-10-28T19:05:31.058Z,99.4
2016-10-28T19:05:51.765Z,99.4
2016-10-28T19:06:12.383Z,99.5
2016-10-28T19:06:33.010Z,99.4
2016-10-28T19:06:53.643Z,99.4
2016-10-28T19:07:14.294Z,99.4
2016-10-28T19:07:34.976Z,99.7
2016-10-28T19:07:55.611Z,99.2
2016-10-28T19:08:16.409Z,99.3
2016-10-28T19:08:37.104Z,99.4
2016-10-28T19:08:57.691Z,99.5
2016-10-28T19:09:18.313Z,99
2016-10-28T19:09:38.915Z,99.3
2016-10-28T19:09:59.515Z,99.4
2016-10-28T19:10:20.390Z,99.7
2016-10-28T19:10:41.057Z,99.1
2016-10-28T19:11:01.692Z,99.3
2016-10-28T19:11:22.269Z,99
2016-10-28T19:11:42.878Z,99.2
2016-10-28T19:12:03.444Z,99.1
2016-10-28T19:12:24.027Z,99.1
2016-10-28T19:12:44.666Z,99.5
2016-10-28T19:13:05.285Z,99.5
2016-10-28T19:13:25.931Z,99.1
2016-10-28T19:13:46.609Z,99.1
2016-10-28T19:14:07.221Z,99.5
2016-10-28T19:14:27.903Z,99.5
2016-10-28T19:14:48.574Z,98.9
2016-10-28T19:15:09.241Z,98.9
2016-10-28T19:15:29.949Z,99.3
2016-10-28T19:15:50.574Z,99.3
2016-10-28T19:16:11.307Z,99.7
2016-10-28T19:16:31.995Z,99.2
2016-10-28T19:16:52.752Z,99
2016-10-28T19:17:13.413Z,99.4
2016-10-28T19:17:34.119Z,99.5
2016-10-28T19:17:54.879Z,99.4
2016-10-28T19:18:15.642Z,99.4
2016-10-28T19:18:36.543Z,99.5
2016-10-28T19:18:57.316Z,99.6
2016-10-28T19:19:18.028Z,99.4
2016-10-28T19:19:38.700Z,99.2
2016-10-28T19:19:59.509Z,99.1
2016-10-28T19:20:20.290Z,99.1
2016-10-28T19:20:41.055Z,99.2
2016-10-28T19:21:01.774Z,99.7
2016-10-28T19:21:22.553Z,99.7
2016-10-28T19:21:43.339Z,99.7
2016-10-28T19:22:04.033Z,99
2016-10-28T19:22:24.767Z,99.1
2016-10-28T19:22:45.520Z,99.3
2016-10-28T19:23:06.626Z,99.3
2016-10-28T19:23:28.060Z,99
2016-10-28T19:23:49.566Z,99
2016-10-28T19:24:10.737Z,99.4
2016-10-28T19:24:31.892Z,99.4
2016-10-28T19:24:53.062Z,99
2016-10-28T19:25:14.240Z,99.4
2016-10-28T19:25:35.516Z,99.1
2016-10-28T19:25:56.657Z,99.2
2016-10-28T19:26:17.892Z,98.8
2016-10-28T19:26:39.375Z,98.6
2016-10-28T19:27:00.654Z,99
2016-10-28T19:27:21.877Z,98.7
2016-10-28T19:27:42.942Z,98.7
2016-10-28T19:28:04.206Z,98.8
2016-10-28T19:28:25.302Z,98.8
2016-10-28T19:28:46.495Z,98.9
2016-10-28T19:29:07.514Z,99
2016-10-28T19:29:28.549Z,98.6
2016-10-28T19:29:49.634Z,98.7
2016-10-28T19:30:10.857Z,98.7
2016-10-28T19:30:31.998Z,98.6
2016-10-28T19:30:53.055Z,98.6
2016-10-28T19:31:14.181Z,98.6
2016-10-28T19:31:35.257Z,98.7
2016-10-28T19:31:57.099Z,99
2016-10-28T19:32:18.246Z,98.8
2016-10-28T19:32:39.565Z,99
2016-10-28T19:33:00.670Z,99.1
2016-10-28T19:33:21.875Z,98.6
2016-10-28T19:33:43.061Z,98.6
2016-10-28T19:34:04.044Z,99
2016-10-28T19:34:25.018Z,98.8
2016-10-28T19:34:46.252Z,98.6
2016-10-28T19:35:07.737Z,98.9
2016-10-28T19:35:28.847Z,98.7
2016-10-28T19:35:49.999Z,98.4
2016-10-28T19:36:11.132Z,98.6
2016-10-28T19:36:32.569Z,98.6
2016-10-28T19:36:53.667Z,98.6
2016-10-28T19:37:14.822Z,98.6
2016-10-28T19:37:35.889Z,98.4
2016-10-28T19:37:57.009Z,98.2
2016-10-28T19:38:18.084Z,98.6
2016-10-28T19:38:39.355Z,98.4
2016-10-28T19:39:00.622Z,98.3
2016-10-28T19:39:21.736Z,98.6
2016-10-28T19:39:42.837Z,98.4
2016-10-28T19:40:03.960Z,98.8
2016-10-28T19:40:25.080Z,98.4
2016-10-28T19:40:46.131Z,98.6
2016-10-28T19:41:07.203Z,98.6
2016-10-28T19:41:28.416Z,98.2
2016-10-28T19:41:49.602Z,98.6
2016-10-28T19:42:10.412Z,98.8
2016-10-28T19:42:31.650Z,98.6
2016-10-28T19:42:52.561Z,98.2
2016-10-28T19:43:13.532Z,98.3
2016-10-28T19:43:34.613Z,98.6
2016-10-28T19:43:55.489Z,98.5
2016-10-28T19:44:16.523Z,98.4
2016-10-28T19:44:37.735Z,98.2
2016-10-28T19:44:58.890Z,98.5
2016-10-28T19:45:20.083Z,98.5
2016-10-28T19:45:41.345Z,98.4
2016-10-28T19:46:02.335Z,98.1
2016-10-28T19:46:23.417Z,98.1
2016-10-28T19:46:44.509Z,98.3
2016-10-28T19:47:05.729Z,98.6
2016-10-28T19:47:26.914Z,98.1
2016-10-28T19:47:48.100Z,98.2
2016-10-28T19:48:09.211Z,98
2016-10-28T19:48:30.200Z,97.9
2016-10-28T19:48:51.427Z,98.2
2016-10-28T19:49:12.370Z,98.6
2016-10-28T19:49:33.663Z,98.5
2016-10-28T19:49:54.830Z,98.4
2016-10-28T19:50:15.888Z,98.7
2016-10-28T19:50:37.007Z,98.6
2016-10-28T19:50:58.049Z,98.8
2016-10-28T19:51:18.879Z,99
2016-10-28T19:51:39.869Z,98.8
2016-10-28T19:52:01.039Z,98.6
2016-10-28T19:52:22.191Z,99
2016-10-28T19:52:43.252Z,98.6
2016-10-28T19:53:04.264Z,99
2016-10-28T19:53:25.408Z,99.1
2016-10-28T19:53:46.317Z,99.2
2016-10-28T19:54:07.395Z,99.8
2016-10-28T19:54:28.497Z,99.7
2016-10-28T19:54:49.651Z,100
2016-10-28T19:55:10.730Z,99.9
2016-10-28T19:55:31.830Z,100
2016-10-28T19:55:52.873Z,100
2016-10-28T19:56:13.891Z,100
2016-10-28T19:56:34.971Z,100
2016-10-28T19:56:56.110Z,100
2016-10-28T19:57:17.179Z,100
2016-10-28T19:57:38.290Z,100
2016-10-28T19:57:59.375Z,100
2016-10-28T19:58:20.544Z,100
2016-10-28T19:58:41.523Z,100
2016-10-28T19:59:02.573Z,100
2016-10-28T19:59:23.738Z,100
2016-10-28T19:59:44.774Z,100
2016-10-28T20:00:05.708Z,100
2016-10-28T20:00:26.689Z,100
2016-10-28T20:00:47.905Z,100
2016-10-28T20:01:08.915Z,100
2016-10-28T20:01:30.031Z,100
2016-10-28T20:01:51.089Z,100
2016-10-28T20:02:12.300Z,100
2016-10-28T20:02:33.376Z,100
2016-10-28T20:02:54.493Z,100
2016-10-28T20:03:15.616Z,100
2016-10-28T20:03:36.694Z,100
2016-10-28T20:03:57.909Z,100
2016-10-28T20:04:18.838Z,100
2016-10-28T20:04:39.905Z,100
2016-10-28T20:05:00.800Z,100
2016-10-28T20:05:21.840Z,100
2016-10-28T20:05:42.412Z,100
2016-10-28T20:06:03.371Z,100
2016-10-28T20:06:23.946Z,100
2016-10-28T20:06:44.558Z,100
2016-10-28T20:07:05.125Z,100
2016-10-28T20:07:25.738Z,100
2016-10-28T20:07:46.323Z,100
2016-10-28T20:08:06.957Z,100
2016-10-28T20:08:27.536Z,100
2016-10-28T20:08:48.088Z,100
2016-10-28T20:09:08.720Z,100
2016-10-28T20:09:29.285Z,100
2016-10-28T20:09:49.853Z,100
2016-10-28T20:10:10.422Z,100
2016-10-28T20:10:30.993Z,100
2016-10-28T20:10:51.602Z,100
2016-10-28T20:11:12.209Z,100
2016-10-28T20:11:33.385Z,100
2016-10-28T20:11:53.994Z,100
2016-10-28T20:12:14.612Z,100
2016-10-28T20:12:35.221Z,100
2016-10-28T20:12:55.829Z,100
2016-10-28T20:13:16.392Z,100
2016-10-28T20:13:36.959Z,100
2016-10-28T20:13:57.537Z,100
2016-10-28T20:14:18.104Z,100
2016-10-28T20:14:38.666Z,100
2016-10-28T20:14:59.233Z,100
2016-10-28T20:15:19.802Z,100
2016-10-28T20:15:40.366Z,100
2016-10-28T20:16:00.922Z,100
2016-10-28T20:16:21.518Z,100
2016-10-28T20:16:42.082Z,100
2016-10-28T20:17:02.661Z,100
2016-10-28T20:17:23.223Z,100
2016-10-28T20:17:43.793Z,100
2016-10-28T20:18:04.397Z,100
2016-10-28T20:18:25.508Z,100
2016-10-28T20:18:46.741Z,100
2016-10-28T20:19:07.763Z,100
2016-10-28T20:19:28.697Z,100
2016-10-28T20:19:49.951Z,100
2016-10-28T20:20:10.988Z,100
2016-10-28T20:20:32.000Z,100
2016-10-28T20:20:53.154Z,100
2016-10-28T20:21:14.231Z,100
2016-10-28T20:21:35.536Z,100
2016-10-28T20:21:56.613Z,100
2016-10-28T20:22:17.612Z,100
2016-10-28T20:22:38.709Z,100
2016-10-28T20:22:59.971Z,100
2016-10-28T20:23:21.195Z,100
2016-10-28T20:23:42.283Z,100
2016-10-28T20:24:03.226Z,100
2016-10-28T20:24:24.314Z,100
2016-10-28T20:24:45.402Z,100
2016-10-28T20:25:06.303Z,100
2016-10-28T20:25:27.394Z,100
2016-10-28T20:25:48.662Z,100
2016-10-28T20:26:09.726Z,100
2016-10-28T20:26:30.590Z,100
2016-10-28T20:26:51.602Z,100
2016-10-28T20:27:12.800Z,100
2016-10-28T20:27:34.068Z,100
2016-10-28T20:27:55.251Z,100
2016-10-28T20:28:16.275Z,100
2016-10-28T20:28:37.395Z,100
2016-10-28T20:28:58.431Z,100
2016-10-28T20:29:19.649Z,100
2016-10-28T20:29:40.596Z,100
2016-10-28T20:30:01.837Z,100
2016-10-28T20:30:22.867Z,100
2016-10-28T20:30:43.923Z,100
2016-10-28T20:31:04.900Z,100
2016-10-28T20:31:25.983Z,100
2016-10-28T20:31:47.107Z,100
2016-10-28T20:32:08.195Z,100
2016-10-28T20:32:29.198Z,100
2016-10-28T20:32:50.364Z,100
2016-10-28T20:33:11.515Z,100
2016-10-28T20:33:32.536Z,100
2016-10-28T20:33:53.828Z,100
2016-10-28T20:34:14.936Z,100
2016-10-28T20:34:36.047Z,100
2016-10-28T20:34:57.080Z,100
2016-10-28T20:35:18.132Z,100
2016-10-28T20:35:39.253Z,100
2016-10-28T20:36:00.317Z,100
2016-10-28T20:36:21.282Z,100
2016-10-28T20:36:42.426Z,100
2016-10-28T20:37:03.575Z,100
2016-10-28T20:37:24.783Z,100
2016-10-28T20:37:45.816Z,100
2016-10-28T20:38:07.132Z,100
2016-10-28T20:38:28.193Z,100
2016-10-28T20:38:49.269Z,100
2016-10-28T20:39:10.295Z,100
2016-10-28T20:39:31.402Z,100
2016-10-28T20:39:52.530Z,100
2016-10-28T20:40:13.567Z,100
2016-10-28T20:40:34.619Z,100
2016-10-28T20:40:55.699Z,100
2016-10-28T20:41:16.871Z,100
2016-10-28T20:41:37.837Z,100
2016-10-28T20:41:58.999Z,100
2016-10-28T20:42:20.539Z,100
2016-10-28T20:42:41.641Z,100
2016-10-28T20:43:02.542Z,100
2016-10-28T20:43:23.476Z,100
2016-10-28T20:43:44.459Z,100
2016-10-28T20:44:05.530Z,100
2016-10-28T20:44:26.628Z,100
2016-10-28T20:44:47.512Z,100
2016-10-28T20:45:08.610Z,100
2016-10-28T20:45:29.670Z,100
2016-10-28T20:45:50.769Z,100
2016-10-28T20:46:11.794Z,100
2016-10-28T20:46:32.912Z,100
2016-10-28T20:46:53.961Z,100
2016-10-28T20:47:15.080Z,100
2016-10-28T20:47:36.208Z,100
2016-10-28T20:47:57.312Z,100
2016-10-28T20:48:18.454Z,100
2016-10-28T20:48:39.537Z,100
2016-10-28T20:49:00.737Z,100
2016-10-28T20:49:21.872Z,100
2016-10-28T20:49:43.076Z,100
2016-10-28T20:50:04.158Z,100
2016-10-28T20:50:25.142Z,100
2016-10-28T20:50:46.183Z,100
2016-10-28T20:51:07.318Z,100
2016-10-28T20:51:28.305Z,100
2016-10-28T20:51:49.271Z,99.8
2016-10-28T20:52:10.393Z,100
2016-10-28T20:52:31.399Z,100
2016-10-28T20:52:52.594Z,100
2016-10-28T20:53:13.703Z,100
2016-10-28T20:53:34.654Z,100
2016-10-28T20:53:55.634Z,100
2016-10-28T20:54:16.577Z,100
2016-10-28T20:54:37.467Z,100
2016-10-28T20:54:58.635Z,100
2016-10-28T20:55:19.666Z,100
2016-10-28T20:55:40.635Z,100
2016-10-28T20:56:01.662Z,100
2016-10-28T20:56:22.786Z,100
2016-10-28T20:56:43.599Z,100
2016-10-28T20:57:04.858Z,100
2016-10-28T20:57:25.765Z,100
2016-10-28T20:57:46.898Z,99.9
2016-10-28T20:58:07.973Z,99.8
2016-10-28T20:58:29.127Z,100
2016-10-28T20:58:50.344Z,100
2016-10-28T20:59:11.492Z,99.9
2016-10-28T20:59:32.547Z,99.8
2016-10-28T20:59:53.617Z,99.8
2016-10-28T21:00:14.504Z,100
2016-10-28T21:00:35.644Z,99.9
2016-10-28T21:00:56.656Z,100
2016-10-28T21:01:17.849Z,100
2016-10-28T21:01:38.793Z,100
2016-10-28T21:01:59.978Z,100
2016-10-28T21:02:20.992Z,99.7
2016-10-28T21:02:42.270Z,100
2016-10-28T21:03:03.197Z,100
2016-10-28T21:03:24.200Z,100
2016-10-28T21:03:45.318Z,99.9
2016-10-28T21:04:06.537Z,99.9
2016-10-28T21:04:27.525Z,100
2016-10-28T21:04:48.970Z,99.6
2016-10-28T21:05:10.149Z,99.7
2016-10-28T21:05:31.218Z,99.9
2016-10-28T21:05:52.264Z,100
2016-10-28T21:06:13.335Z,99.7
2016-10-28T21:06:34.732Z,99.7
2016-10-28T21:06:55.780Z,99.7
2016-10-28T21:07:16.905Z,99.8
2016-10-28T21:07:37.860Z,99.7
2016-10-28T21:07:58.847Z,99.4
2016-10-28T21:08:19.415Z,99.6
2016-10-28T21:08:39.980Z,99.6
2016-10-28T21:09:00.539Z,99.4
2016-10-28T21:09:21.114Z,99.6
2016-10-28T21:09:41.687Z,99.7
2016-10-28T21:10:02.290Z,99.3
2016-10-28T21:10:22.849Z,99.6
2016-10-28T21:10:43.476Z,99.9
2016-10-28T21:11:04.036Z,99.8
2016-10-28T21:11:24.632Z,99.7
2016-10-28T21:11:45.201Z,99.7
2016-10-28T21:12:05.783Z,99.8
2016-10-28T21:12:26.343Z,99.8
2016-10-28T21:12:46.911Z,99.7
2016-10-28T21:13:07.471Z,100
2016-10-28T21:13:28.047Z,99.8
2016-10-28T21:13:48.611Z,100
2016-10-28T21:14:09.180Z,100
2016-10-28T21:14:29.752Z,100
2016-10-28T21:14:50.335Z,100
2016-10-28T21:15:10.889Z,100
2016-10-28T21:15:31.466Z,100
2016-10-28T21:15:52.031Z,100
2016-10-28T21:16:12.802Z,100
2016-10-28T21:16:33.772Z,100
2016-10-28T21:16:54.840Z,100
2016-10-28T21:17:16.016Z,100
2016-10-28T21:17:37.089Z,100
2016-10-28T21:17:58.058Z,100
2016-10-28T21:18:19.153Z,100
2016-10-28T21:18:40.278Z,100
2016-10-28T21:19:01.363Z,100
2016-10-28T21:19:22.440Z,100
2016-10-28T21:19:43.404Z,100
2016-10-28T21:20:04.473Z,100
2016-10-28T21:20:25.603Z,100
2016-10-28T21:20:46.663Z,100
2016-10-28T21:21:07.662Z,100
2016-10-28T21:21:28.780Z,100
2016-10-28T21:21:50.105Z,100
2016-10-28T21:22:10.858Z,100
2016-10-28T21:22:32.046Z,99.9
2016-10-28T21:22:53.024Z,100
2016-10-28T21:23:13.962Z,100
2016-10-28T21:23:35.067Z,100
2016-10-28T21:23:55.998Z,100
2016-10-28T21:24:17.086Z,100
2016-10-28T21:24:38.083Z,100
2016-10-28T21:24:59.198Z,100
2016-10-28T21:25:20.131Z,100
2016-10-28T21:25:41.212Z,100
2016-10-28T21:26:02.368Z,100
2016-10-28T21:26:23.433Z,100
2016-10-28T21:26:44.567Z,100
2016-10-28T21:27:05.557Z,100
2016-10-28T21:27:26.900Z,100
2016-10-28T21:27:47.963Z,99.9
2016-10-28T21:28:09.109Z,100
2016-10-28T21:28:30.248Z,100
2016-10-28T21:28:51.198Z,100
2016-10-28T21:29:12.448Z,100
2016-10-28T21:29:33.372Z,100
2016-10-28T21:29:54.319Z,100
2016-10-28T21:30:15.430Z,100
2016-10-28T21:30:36.418Z,100
2016-10-28T21:30:57.358Z,100
2016-10-28T21:31:18.384Z,100
2016-10-28T21:31:40.039Z,100
2016-10-28T21:32:01.126Z,100
2016-10-28T21:32:22.304Z,100
2016-10-28T21:32:43.049Z,100
2016-10-28T21:33:03.733Z,100
2016-10-28T21:33:24.919Z,100
2016-10-28T21:33:45.945Z,100
2016-10-28T21:34:07.037Z,100
2016-10-28T21:34:27.982Z,100
2016-10-28T21:34:49.177Z,100
2016-10-28T21:35:10.238Z,100
2016-10-28T21:35:31.344Z,100
2016-10-28T21:35:52.426Z,100
2016-10-28T21:36:13.660Z,100
2016-10-28T21:36:34.565Z,100
2016-10-28T21:36:55.666Z,100
2016-10-28T21:37:16.665Z,100
2016-10-28T21:37:37.567Z,100
2016-10-28T21:37:58.841Z,100
2016-10-28T21:38:20.098Z,100
2016-10-28T21:38:41.324Z,99.9
2016-10-28T21:39:02.403Z,100
2016-10-28T21:39:23.529Z,100
2016-10-28T21:39:44.595Z,100
2016-10-28T21:40:05.790Z,100
2016-10-28T21:40:26.656Z,100
2016-10-28T21:40:47.720Z,100
2016-10-28T21:41:08.819Z,100
2016-10-28T21:41:29.811Z,100
2016-10-28T21:41:51.013Z,100
2016-10-28T21:42:12.125Z,100
2016-10-28T21:42:33.220Z,100
2016-10-28T21:42:54.112Z,100
2016-10-28T21:43:15.269Z,100
2016-10-28T21:43:36.418Z,100
2016-10-28T21:43:57.361Z,100
2016-10-28T21:44:18.606Z,100
2016-10-28T21:44:39.652Z,100
2016-10-28T21:45:00.702Z,100
2016-10-28T21:45:21.717Z,100
2016-10-28T21:45:42.714Z,100
2016-10-28T21:46:03.923Z,100
2016-10-28T21:46:24.923Z,100
2016-10-28T21:46:45.838Z,100
2016-10-28T21:47:06.829Z,100
2016-10-28T21:47:27.872Z,100
2016-10-28T21:47:49.100Z,100
2016-10-28T21:48:10.280Z,100
2016-10-28T21:48:31.339Z,100
2016-10-28T21:48:52.472Z,100
2016-10-28T21:49:13.554Z,100
2016-10-28T21:49:34.587Z,100
2016-10-28T21:49:55.659Z,100
2016-10-28T21:50:16.684Z,100
2016-10-28T21:50:37.734Z,100
2016-10-28T21:50:58.901Z,100
2016-10-28T21:51:19.905Z,100
2016-10-28T21:51:40.985Z,100
2016-10-28T21:52:02.114Z,100
2016-10-28T21:52:23.181Z,100
2016-10-28T21:52:44.323Z,100
2016-10-28T21:53:05.400Z,100
2016-10-28T21:53:26.301Z,100
2016-10-28T21:53:47.297Z,100
2016-10-28T21:54:08.472Z,100
2016-10-28T21:54:29.638Z,100
2016-10-28T21:54:50.888Z,100
2016-10-28T21:55:11.998Z,100
2016-10-28T21:55:32.618Z,100
2016-10-28T21:55:53.228Z,100
2016-10-28T21:56:13.845Z,100
2016-10-28T21:56:34.474Z,100
2016-10-28T21:56:55.081Z,100
2016-10-28T21:57:15.670Z,100
2016-10-28T21:57:36.232Z,100
2016-10-28T21:57:56.791Z,100
2016-10-28T21:58:17.372Z,100
2016-10-28T21:58:37.975Z,100
2016-10-28T21:58:58.536Z,100
2016-10-28T21:59:19.253Z,100
2016-10-28T21:59:39.822Z,100
2016-10-28T22:00:00.448Z,100
2016-10-28T22:00:21.021Z,100
2016-10-28T22:00:41.623Z,100
2016-10-28T22:01:02.197Z,100
2016-10-28T22:01:22.772Z,100
2016-10-28T22:01:43.342Z,100
2016-10-28T22:02:03.946Z,100
2016-10-28T22:02:24.521Z,100
2016-10-28T22:02:45.131Z,100
2016-10-28T22:03:05.697Z,100
2016-10-28T22:03:26.257Z,100
2016-10-28T22:03:46.835Z,100
2016-10-28T22:04:07.410Z,100
2016-10-28T22:04:27.981Z,100
2016-10-28T22:04:48.593Z,100
2016-10-28T22:05:09.161Z,100
2016-10-28T22:05:29.730Z,100
2016-10-28T22:05:50.303Z,100
2016-10-28T22:06:10.880Z,100
2016-10-28T22:06:31.517Z,100
2016-10-28T22:06:52.075Z,100
2016-10-28T22:07:12.678Z,100
2016-10-28T22:07:33.280Z,100
2016-10-28T22:07:53.879Z,100
2016-10-28T22:08:14.493Z,100
2016-10-28T22:08:35.056Z,100